createdAt,value
2023-03-11T11:26:32.459Z,34.38
2023-03-11T11:28:36.892Z,33.74
2023-03-11T11:30:41.572Z,33.3
2023-03-11T11:32:46.651Z,32.91
2023-03-11T11:34:51.641Z,32.13
2023-03-11T11:36:56.055Z,32.65
2023-03-11T11:39:00.577Z,32.68
2023-03-11T11:41:04.976Z,32.45
2023-03-11T11:43:09.703Z,32.48
2023-03-11T11:45:14.215Z,32.76
2023-03-11T11:47:18.781Z,32.74
2023-03-11T11:49:23.302Z,33.1
2023-03-11T11:51:27.863Z,33.07
2023-03-11T11:53:32.370Z,33.08
2023-03-11T11:55:36.875Z,33.1
2023-03-11T11:57:41.243Z,33.37
2023-03-11T11:59:46.391Z,33.66
2023-03-11T12:01:50.897Z,33.94
2023-03-11T12:03:55.484Z,34.6
2023-03-11T12:06:00.459Z,34.89
2023-03-11T12:08:04.979Z,35.82
2023-03-11T12:10:25.288Z,35.84
2023-03-11T12:12:29.821Z,36.22
2023-03-11T12:14:34.312Z,37.21
2023-03-11T12:16:38.746Z,37.35
2023-03-11T12:18:43.147Z,37.18
2023-03-11T12:20:47.779Z,36.96
2023-03-11T12:22:52.256Z,37.3
2023-03-11T12:24:56.866Z,37.48
2023-03-11T12:27:01.270Z,36.75
2023-03-11T12:29:05.828Z,36.7
2023-03-11T12:31:10.411Z,36.19
2023-03-11T12:33:14.817Z,36.68
2023-03-11T12:35:19.326Z,36.34
2023-03-11T12:37:23.795Z,36.42
2023-03-11T12:39:28.208Z,36.23
2023-03-11T12:41:32.617Z,35.86
2023-03-11T12:43:37.586Z,36.08
2023-03-11T12:45:42.026Z,35.68
2023-03-11T12:47:46.348Z,35.75
2023-03-11T12:49:50.730Z,35.69
2023-03-11T12:51:55.082Z,35.91
2023-03-11T12:53:59.539Z,36.2
2023-03-11T12:56:03.957Z,36.28
2023-03-11T12:58:08.413Z,36.44
2023-03-11T13:00:13.220Z,36.5
2023-03-11T13:02:18.322Z,36.19
2023-03-11T13:04:22.908Z,36.43
2023-03-11T13:06:27.667Z,36.31
2023-03-11T13:08:32.129Z,36.38
2023-03-11T13:10:36.894Z,36.11
2023-03-11T13:12:41.529Z,36.06
2023-03-11T13:14:46.989Z,35.6
2023-03-11T13:16:51.699Z,35.64
2023-03-11T13:18:56.222Z,35.51
2023-03-11T13:21:00.715Z,35.25
2023-03-11T13:23:05.602Z,34.93
2023-03-11T13:25:10.425Z,34.66
2023-03-11T13:27:14.886Z,34.91
2023-03-11T13:29:19.613Z,34.9
2023-03-11T13:31:24.954Z,34.66
2023-03-11T13:33:29.565Z,34.83
2023-03-11T13:35:34.444Z,34.71
2023-03-11T13:37:39.129Z,34.89
2023-03-11T13:39:44.095Z,35.24
2023-03-11T13:41:48.729Z,35.53
2023-03-11T13:43:53.162Z,35.65
2023-03-11T13:45:57.758Z,35.42
2023-03-11T13:48:02.200Z,35.26
2023-03-11T13:50:06.729Z,35.18
2023-03-11T13:52:11.333Z,34.93
2023-03-11T13:54:15.743Z,34.63
2023-03-11T13:56:20.211Z,34.32
2023-03-11T13:58:24.746Z,33.71
2023-03-11T14:00:29.191Z,33.31
2023-03-11T14:02:33.600Z,33.25
2023-03-11T14:04:38.365Z,33.53
2023-03-11T14:06:42.783Z,33.77
2023-03-11T14:08:47.263Z,33.69
2023-03-11T14:10:51.755Z,33.65
2023-03-11T14:12:56.449Z,33.61
2023-03-11T14:15:00.970Z,33.42
2023-03-11T14:17:05.488Z,32.69
2023-03-11T14:19:09.913Z,32.8
2023-03-11T14:21:14.377Z,33.15
2023-03-11T14:23:18.948Z,32.87
2023-03-11T14:25:23.564Z,32.84
2023-03-11T14:27:28.036Z,32.95
2023-03-11T14:29:32.610Z,32.99
2023-03-11T14:31:37.557Z,32.41
2023-03-11T14:33:42.324Z,32.33
2023-03-11T14:35:47.128Z,32.18
2023-03-11T14:37:51.560Z,32.11
2023-03-11T14:39:56.375Z,32.05
2023-03-11T14:42:02.034Z,31.95
2023-03-11T14:44:06.488Z,31.64
2023-03-11T14:46:11.470Z,31.75
2023-03-11T14:48:17.162Z,31.65
2023-03-11T14:50:22.125Z,31.53
2023-03-11T14:52:27.867Z,31.49
2023-03-11T14:54:32.374Z,32.05
2023-03-11T14:56:36.823Z,32.14
2023-03-11T14:58:41.872Z,32.03
2023-03-11T15:00:46.629Z,32.1
2023-03-11T15:02:51.406Z,31.94
2023-03-11T15:04:57.776Z,31.89
2023-03-11T15:07:03.758Z,30.76
2023-03-11T15:09:08.568Z,30.06
2023-03-11T15:11:13.511Z,30.87
2023-03-11T15:13:18.329Z,30.82
2023-03-11T15:15:23.024Z,30.97
2023-03-11T15:17:45.240Z,31.03
2023-03-11T15:19:51.372Z,31.33
2023-03-11T15:21:55.891Z,31.43
2023-03-11T15:24:00.378Z,31.45
2023-03-11T15:26:04.770Z,31.6
2023-03-11T15:28:09.454Z,31.35
2023-03-11T15:30:14.023Z,31.43
2023-03-11T15:32:18.740Z,31.46
2023-03-11T15:34:24.661Z,31.67
2023-03-11T15:36:29.478Z,32.24
2023-03-11T15:38:34.348Z,32.12
2023-03-11T15:40:47.933Z,32.36
2023-03-11T15:42:53.778Z,32.93
2023-03-11T15:44:58.486Z,33.38
2023-03-11T15:47:03.182Z,33.07
2023-03-11T15:49:07.641Z,32.77
2023-03-11T15:51:15.214Z,32.35
2023-03-11T15:53:19.720Z,32.06
2023-03-11T15:55:25.095Z,31.57
2023-03-11T15:57:29.617Z,28.42
2023-03-11T15:59:34.258Z,29.44
2023-03-11T16:01:40.078Z,29.61
2023-03-11T16:03:45.245Z,29.38
2023-03-11T16:05:50.059Z,29.51
2023-03-11T16:07:54.528Z,29.37
2023-03-11T16:09:59.100Z,29.2
2023-03-11T16:12:04.288Z,29.16
2023-03-11T16:14:08.931Z,28.83
2023-03-11T16:16:13.670Z,28.16
2023-03-11T16:18:19.250Z,27.05
2023-03-11T16:20:24.276Z,26.63
2023-03-11T16:22:29.154Z,26.13
2023-03-11T16:24:33.840Z,26.45
2023-03-11T16:26:38.212Z,25.94
2023-03-11T16:28:45.274Z,25.71
2023-03-11T16:30:53.252Z,25.5
2023-03-11T16:32:58.430Z,25.38
2023-03-11T16:35:03.031Z,25.16
2023-03-11T16:37:07.682Z,24.87
2023-03-11T16:39:15.760Z,25.26
2023-03-11T16:41:20.435Z,24.79
2023-03-11T16:43:25.619Z,24.86
2023-03-11T16:45:32.388Z,25
2023-03-11T16:47:37.897Z,24.72
2023-03-11T16:49:44.625Z,24.71
2023-03-11T16:51:49.507Z,24.77
2023-03-11T16:53:54.632Z,24.63
2023-03-11T16:55:59.671Z,24.77
2023-03-11T16:58:04.377Z,24.53
2023-03-11T17:00:09.298Z,24.5
2023-03-11T17:02:14.279Z,24.42
2023-03-11T17:04:19.807Z,24.19
2023-03-11T17:06:24.419Z,23.94
2023-03-11T17:08:28.984Z,23.8
2023-03-11T17:10:34.677Z,23.83
2023-03-11T17:12:41.382Z,23.75
2023-03-11T17:14:46.299Z,23.67
2023-03-11T17:16:51.834Z,23.79
2023-03-11T17:18:56.807Z,23.51
2023-03-11T17:21:01.313Z,23.56
2023-03-11T17:23:07.757Z,23.3
2023-03-11T17:25:15.679Z,23.34
2023-03-11T17:27:20.576Z,23.3
2023-03-11T17:29:25.552Z,23.42
2023-03-11T17:31:30.898Z,24.38
2023-03-11T17:33:35.502Z,25.04
2023-03-11T17:35:41.351Z,25.32
2023-03-11T17:37:46.218Z,25.39
2023-03-11T17:39:50.843Z,25.35
2023-03-11T17:41:56.539Z,25.39
2023-03-11T17:44:00.961Z,25.58
2023-03-11T17:46:05.660Z,25.39
2023-03-11T17:48:11.319Z,25.5
2023-03-11T17:50:15.832Z,25.53
2023-03-11T17:52:20.476Z,25.85
2023-03-11T17:54:25.130Z,25.7
2023-03-11T17:56:29.672Z,25.66
2023-03-11T17:58:34.173Z,26.5
2023-03-11T18:00:38.681Z,27.19
2023-03-11T18:02:45.706Z,27.24
2023-03-11T18:04:50.273Z,26.82
2023-03-11T18:06:55.309Z,27.53
2023-03-11T18:08:59.909Z,27.58
2023-03-11T18:11:04.889Z,27.77
2023-03-11T18:13:10.196Z,27.71
2023-03-11T18:15:15.135Z,27.93
2023-03-11T18:17:20.651Z,28.13
2023-03-11T18:19:25.301Z,28.21
2023-03-11T18:21:30.370Z,28.61
2023-03-11T18:23:35.086Z,28.83
2023-03-11T18:25:39.627Z,28.96
2023-03-11T18:27:45.053Z,28.84
2023-03-11T18:29:50.141Z,28.79
2023-03-11T18:31:55.114Z,28.85
2023-03-11T18:34:00.196Z,29.04
2023-03-11T18:36:06.705Z,29.14
2023-03-11T18:38:11.657Z,29.39
2023-03-11T18:40:17.292Z,30.27
2023-03-11T18:42:24.870Z,30.82
2023-03-11T18:44:29.721Z,31.39
2023-03-11T18:46:34.594Z,32.24
2023-03-11T18:48:39.375Z,32.81
2023-03-11T18:50:44.035Z,33.83
2023-03-11T18:52:48.565Z,34.34
2023-03-11T18:54:53.260Z,34.02
2023-03-11T18:56:57.606Z,33.88
2023-03-11T18:59:02.601Z,34.45
2023-03-11T19:01:07.520Z,33.78
2023-03-11T19:03:12.448Z,34.36
2023-03-11T19:05:17.407Z,36
2023-03-11T19:07:22.216Z,35.87
2023-03-11T19:09:27.111Z,36.29
2023-03-11T19:11:32.675Z,36.46
2023-03-11T19:13:49.268Z,35.01
2023-03-11T19:15:55.443Z,34.99
2023-03-11T19:18:08.846Z,34.41
2023-03-11T19:20:13.441Z,34.52
2023-03-11T19:22:18.317Z,34.7
2023-03-11T19:24:22.812Z,35.12
2023-03-11T19:26:47.315Z,35.06
2023-03-11T19:28:51.767Z,34.82
2023-03-11T19:30:56.700Z,35.08
2023-03-11T19:33:01.383Z,35.43
2023-03-11T19:35:06.948Z,35.69
2023-03-11T19:37:12.737Z,35.64
2023-03-11T19:39:17.124Z,35.65
2023-03-11T19:41:21.668Z,37.01
2023-03-11T19:43:26.234Z,36.51
2023-03-11T19:45:32.603Z,36.2
2023-03-11T19:47:37.316Z,36.25
2023-03-11T19:49:42.020Z,35.58
2023-03-11T19:51:52.770Z,34.95
2023-03-11T19:53:57.533Z,33.47
2023-03-11T19:56:02.571Z,34.11
2023-03-11T19:58:07.194Z,33.9
2023-03-11T20:00:11.908Z,33.23
2023-03-11T20:02:16.888Z,33.14
2023-03-11T20:04:23.098Z,33.63
2023-03-11T20:06:28.157Z,33.51
2023-03-11T20:08:32.788Z,32.94
2023-03-11T20:10:37.383Z,33.24
2023-03-11T20:13:03.024Z,33.06
2023-03-11T20:15:07.705Z,32.76
2023-03-11T20:17:12.270Z,33.14
2023-03-11T20:19:16.879Z,33.22
2023-03-11T20:21:22.405Z,33.25
2023-03-11T20:23:27.513Z,33.25
2023-03-11T20:25:32.492Z,33.15
2023-03-11T20:27:37.000Z,33.08
2023-03-11T20:29:41.677Z,32.87
2023-03-11T20:31:46.876Z,32.84
2023-03-11T20:33:51.614Z,32.95
2023-03-11T20:35:57.346Z,33.12
2023-03-11T20:38:03.422Z,33.08
2023-03-11T20:40:08.030Z,33.32
2023-03-11T20:42:15.971Z,32.98
2023-03-11T20:44:20.763Z,32.99
2023-03-11T20:46:26.032Z,32.91
2023-03-11T20:48:30.837Z,33.41
2023-03-11T20:50:35.406Z,33.53
2023-03-11T20:52:40.405Z,33.91
2023-03-11T20:54:45.423Z,33.74
2023-03-11T20:56:51.231Z,33.71
2023-03-11T20:58:56.161Z,33.72
2023-03-11T21:01:01.217Z,33.72
2023-03-11T21:03:07.133Z,33.96
2023-03-11T21:05:12.559Z,33.64
2023-03-11T21:07:17.064Z,33.69
2023-03-11T21:09:21.826Z,34.09
2023-03-11T21:11:26.575Z,34.36
2023-03-11T21:13:31.123Z,34.36
2023-03-11T21:15:35.703Z,34.69
2023-03-11T21:17:40.274Z,34.74
2023-03-11T21:19:45.055Z,34.72
2023-03-11T21:21:49.790Z,34.72
2023-03-11T21:23:54.551Z,34.67
2023-03-11T21:25:59.044Z,34.76
2023-03-11T21:28:03.603Z,34.71
2023-03-11T21:30:08.157Z,34.54
2023-03-11T21:32:13.119Z,34.76
2023-03-11T21:34:18.039Z,34.84
2023-03-11T21:36:22.891Z,34.66
2023-03-11T21:38:27.896Z,33.99
2023-03-11T21:40:32.381Z,34.18
2023-03-11T21:42:37.147Z,34.8
2023-03-11T21:44:41.751Z,34.48
2023-03-11T21:46:46.711Z,34.49
2023-03-11T21:48:51.374Z,34.5
2023-03-11T21:50:56.173Z,34.6
2023-03-11T21:53:00.782Z,34.24
2023-03-11T21:55:05.628Z,34.3
2023-03-11T21:57:10.495Z,34.05
2023-03-11T21:59:15.321Z,33.34
2023-03-11T22:01:20.019Z,33.37
2023-03-11T22:03:25.039Z,32.77
2023-03-11T22:05:29.757Z,30.39
2023-03-11T22:07:34.340Z,28.23
2023-03-11T22:09:39.171Z,27.6
2023-03-11T22:11:43.979Z,27.04
2023-03-11T22:13:48.734Z,26.61
2023-03-11T22:15:53.355Z,26.27
2023-03-11T22:17:58.205Z,26.14
2023-03-11T22:20:03.046Z,25.8
2023-03-11T22:22:07.594Z,25.58
2023-03-11T22:24:12.065Z,25.54
2023-03-11T22:26:16.485Z,25.46
2023-03-11T22:28:20.945Z,25.68
2023-03-11T22:30:25.413Z,25.7
2023-03-11T22:32:29.992Z,25.5
2023-03-11T22:34:34.378Z,25.44
2023-03-11T22:36:38.754Z,25.54
2023-03-11T22:38:44.253Z,25.28
2023-03-11T22:40:48.718Z,24.99
2023-03-11T22:42:53.080Z,24.93
2023-03-11T22:44:57.498Z,24.64
2023-03-11T22:47:02.200Z,25.07
2023-03-11T22:49:06.631Z,24.82
2023-03-11T22:51:11.100Z,24.71
2023-03-11T22:53:15.604Z,24.82
2023-03-11T22:55:20.052Z,24.58
2023-03-11T22:57:24.494Z,24.56
2023-03-11T22:59:28.798Z,24.54
2023-03-11T23:01:33.220Z,24.53
2023-03-11T23:03:38.195Z,24.16
2023-03-11T23:05:43.197Z,24.24
2023-03-11T23:07:47.650Z,24.47
2023-03-11T23:09:52.068Z,24.07
2023-03-11T23:11:56.433Z,24.01
2023-03-11T23:14:00.824Z,24.13
2023-03-11T23:16:05.233Z,24.59
2023-03-11T23:18:09.641Z,24.54
2023-03-11T23:20:14.172Z,24.04
2023-03-11T23:22:18.545Z,24.35
2023-03-11T23:24:22.940Z,23.98
2023-03-11T23:26:27.279Z,24
2023-03-11T23:28:31.683Z,24.22
2023-03-11T23:30:36.399Z,24.01
2023-03-11T23:32:41.035Z,23.71
2023-03-11T23:34:45.557Z,23.73
2023-03-11T23:36:49.933Z,23.66
2023-03-11T23:38:54.323Z,23.85
2023-03-11T23:40:58.862Z,23.7
2023-03-11T23:43:03.208Z,23.77
2023-03-11T23:45:07.535Z,23.65
2023-03-11T23:47:11.975Z,23.69
2023-03-11T23:49:16.321Z,24.03
2023-03-11T23:51:20.700Z,24.11
2023-03-11T23:53:25.172Z,24.1
2023-03-11T23:55:29.577Z,24.09
2023-03-11T23:57:33.965Z,24.15
2023-03-11T23:59:38.331Z,24.37
